Springfield, MO

8:49 AM CDT on March 27, 2015 (GMT -0500)
Southeast Springfield | | Change Station
CLOSE
Current Station
Personal Weather Station
Location: Springfield, MO
Elevation: 1316 ft
Nearby Weather Stations

Elev 1316 ft 37.16 °N, 93.25 °W | Updated 10 minutes ago

Rain
Rain
37.8 °F
Feels Like 38 °F
N
1.7
Wind Variable Wind from ESE

Today
High -- | Low -- °F
--% Chance of Precip.
Yesterday
High -- | Low -- °F
Precip. -- in
7:06 AM 7:31 PM
First Quarter, 52% visible
Pressure 30.16 in
Visibility 10.0 miles
Clouds Scattered Clouds 900 ft
Mostly Cloudy 1400 ft
Overcast 2200 ft
Windchill 38 °F
Dew Point 32 °F
Humidity 79%
Rainfall 0.07 in
Snow Depth Not available.
UV 0 out of 12
Pollen 8.80 out of 12
Air Quality Not available.
Flu Activity Not available.
SPECI KSGF 271344Z 36011KT 10SM -RA SCT009 BKN014 OVC022 03/01 A3016 RMK AO2 RAE10B21SNB10E21 P0001 T00280011

More Conditions Fewer Conditions

Pressure 30.16 in
Visibility 10.0 miles
Clouds Scattered Clouds 900 ft
Mostly Cloudy 1400 ft
Overcast 2200 ft
Windchill 38 °F
Dew Point 32 °F
Humidity 79%
Rainfall 0.07 in
Snow Depth Not available.
UV 0 out of 12
Pollen 8.80 out of 12
Air Quality Not available.
Flu Activity Not available.
SPECI KSGF 271344Z 36011KT 10SM -RA SCT009 BKN014 OVC022 03/01 A3016 RMK AO2 RAE10B21SNB10E21 P0001 T00280011

More Conditions Fewer Conditions

10-Day Weather Forecast

Almanac

Astronomy

Mar. 27, 2015 Rise Set
Actual Time
Civil Twilight
Nautical Twilight
Astronomical Twilight
Moon
Length of Visible Light
Length of Day
Tomorrow will be .
, % of the Moon is Illuminated

Today's Extremes

State Highs State Lows

Community

WunderPhotos

Upload Photos

1,808,735 photos uploaded!

WunderBlogs® & News

Nearby

Air Quality

  Air Quality AQ Index Pollutant
Not available.

Snow Depth

Station Depth Elevation

Earthquake Activity

City Distance Mag. Time & Date
Minimum magnitude displayed is 2.5.

Coastal Water Temperatures

Place Temperature

Stations

Nearby Weather Stations

Station Location Temp. Windchill Dew Point Humidity Wind Precip. Elev Updated Type